| Date | Time | Temp. (oF) | Dew Point (oF) | Rel. Hum. (%) | Press. (in.) | Wind Dir. | Wind Speed (mph) | Hourly Rainfall (in.) |
|
|---|---|---|---|---|---|---|---|---|---|
| 1 | 09/11 | 00:00 | 72 | 65 | 81 | 29.62 | SW | 3 | 0.00 |
| 2 | 09/10 | 23:00 | 74 | 65 | 74 | 29.63 | W | 4 | 0.00 |
| 3 | 09/10 | 22:00 | 77 | 65 | 68 | 29.64 | SSW | 0 | 0.00 |
| 4 | 09/10 | 21:00 | 81 | 65 | 59 | 29.65 | SSE | 2 | 0.00 |
| 5 | 09/10 | 20:00 | 84 | 64 | 52 | 29.66 | SSE | 1 | 0.00 |
| 6 | 09/10 | 19:00 | 87 | 64 | 48 | 29.67 | SSW | 2 | 0.00 |
| 7 | 09/10 | 18:00 | 91 | 62 | 39 | 29.68 | SE | 1 | 0.00 |
| 8 | 09/10 | 17:00 | 93 | 63 | 38 | 29.70 | S | 2 | 0.00 |
| 9 | 09/10 | 16:00 | 94 | 65 | 40 | 29.72 | ESE | 2 | 0.00 |
| 10 | 09/10 | 15:00 | 92 | 61 | 37 | 29.76 | SE | 3 | 0.00 |
| 11 | 09/10 | 14:00 | 92 | 63 | 39 | 29.80 | SE | 2 | 0.00 |
| 12 | 09/10 | 13:00 | 90 | 62 | 41 | 29.83 | SSE | 4 | 0.00 |
| 13 | 09/10 | 12:00 | 87 | 62 | 45 | 29.87 | N | 5 | 0.00 |
| 14 | 09/10 | 11:00 | 81 | 61 | 52 | 29.89 | NNW | 1 | 0.00 |
| 15 | 09/10 | 10:00 | 75 | 64 | 71 | 29.91 | SE | 2 | 0.00 |
| 16 | 09/10 | 09:00 | 70 | 65 | 86 | 29.92 | SE | 1 | 0.00 |
| 17 | 09/10 | 08:00 | 64 | 63 | 97 | 29.94 | SSE | 0 | 0.00 |
| 18 | 09/10 | 07:00 | 62 | 60 | 96 | 29.94 | NNW | 1 | 0.00 |
| 19 | 09/10 | 06:00 | 62 | 61 | 97 | 29.95 | SSE | 0 | 0.00 |
| 20 | 09/10 | 05:00 | 62 | 61 | 98 | 29.96 | SSE | 0 | 0.00 |
| 21 | 09/10 | 04:00 | 61 | 59 | 96 | 29.97 | SSE | 0 | 0.00 |
| 22 | 09/10 | 03:00 | 62 | 60 | 94 | 29.97 | SSE | 0 | 0.00 |
| 23 | 09/10 | 02:00 | 63 | 60 | 92 | 29.98 | SSE | 0 | 0.00 |
| 24 | 09/10 | 01:00 | 65 | 61 | 89 | 30.00 | NW | 0 | 0.00 |